Time;durP1;ratioP1;P1;durP2;ratioP2;P2;SDS_P1;SDS_P2;PMS_P1;PMS_P2;Temp;Humidity;BMP_temperature;BMP_pressure;BME280_temperature;BME280_humidity;BME280_pressure;Samples;Min_cycle;Max_cycle;Signal;HPM_P1;HPM_P2
2023/05/23 00:00:14;;;;;;;18.48;12.90;;;16.30;99.90;;;;;;7580679;19;20018;-73
2023/05/23 00:02:48;;;;;;;19.65;12.93;;;16.30;99.90;;;;;;7577268;19;21820;-74
2023/05/23 00:05:20;;;;;;;16.70;12.77;;;16.30;99.90;;;;;;7579383;19;20094;-73
2023/05/23 00:07:52;;;;;;;18.98;13.48;;;16.20;99.90;;;;;;7589081;19;20013;-73
2023/05/23 00:10:25;;;;;;;17.15;12.55;;;16.20;99.90;;;;;;7587192;19;20113;-73
2023/05/23 00:12:57;;;;;;;18.53;14.33;;;16.30;99.90;;;;;;7563255;19;20112;-73
2023/05/23 00:15:29;;;;;;;18.13;13.27;;;16.20;99.90;;;;;;7591078;19;20014;-72
2023/05/23 00:18:02;;;;;;;17.27;13.32;;;16.20;99.90;;;;;;7600046;19;20040;-74
2023/05/23 00:20:36;;;;;;;24.52;15.13;;;16.20;99.90;;;;;;7594893;19;20745;-72
2023/05/23 00:23:09;;;;;;;21.00;14.77;;;16.10;99.90;;;;;;7585755;19;20048;-72
2023/05/23 00:25:47;;;;;;;19.60;14.48;;;16.10;99.90;;;;;;7588175;19;20022;-71
2023/05/23 00:28:19;;;;;;;17.83;13.05;;;16.20;99.90;;;;;;7584643;19;20119;-71
2023/05/23 00:30:51;;;;;;;17.67;13.45;;;16.40;99.90;;;;;;7560875;19;20652;-72
2023/05/23 00:33:24;;;;;;;16.98;13.45;;;16.40;99.90;;;;;;7587955;19;20021;-73
2023/05/23 00:35:56;;;;;;;20.33;14.60;;;16.30;99.90;;;;;;7582481;19;20014;-71
2023/05/23 00:38:28;;;;;;;19.70;14.02;;;16.20;99.90;;;;;;7583626;19;20349;-74
2023/05/23 00:41:01;;;;;;;23.10;14.10;;;16.20;99.90;;;;;;7567857;19;20030;-73
2023/05/23 00:43:33;;;;;;;20.42;14.23;;;16.20;99.90;;;;;;7565117;19;20010;-73
2023/05/23 00:46:06;;;;;;;22.15;14.20;;;16.30;99.90;;;;;;7568895;19;20029;-73
2023/05/23 00:48:38;;;;;;;17.08;13.98;;;16.20;99.90;;;;;;7568315;19;20105;-73
2023/05/23 00:51:11;;;;;;;18.35;14.32;;;16.30;99.90;;;;;;7581548;19;21178;-73
2023/05/23 00:53:43;;;;;;;20.40;13.38;;;16.40;99.90;;;;;;7579708;19;20643;-73
2023/05/23 00:56:16;;;;;;;20.33;14.25;;;16.40;99.90;;;;;;7595257;19;20078;-73
2023/05/23 00:58:49;;;;;;;20.23;13.73;;;16.50;99.90;;;;;;7585564;19;20015;-71
2023/05/23 01:01:21;;;;;;;24.25;13.55;;;16.50;99.90;;;;;;7583937;19;20049;-72
2023/05/23 01:03:55;;;;;;;19.15;13.43;;;16.50;99.90;;;;;;7572747;19;20019;-73
2023/05/23 01:06:29;;;;;;;19.10;13.55;;;16.60;99.90;;;;;;7588715;19;20018;-73
2023/05/23 01:09:02;;;;;;;19.55;13.68;;;16.50;99.90;;;;;;7584317;19;20046;-72
2023/05/23 01:12:07;;;;;;;17.08;13.38;;;16.60;99.90;;;;;;7589902;19;20019;-74
2023/05/23 01:14:47;;;;;;;19.67;13.57;;;16.50;99.90;;;;;;7575165;19;20010;-72
2023/05/23 01:17:32;;;;;;;18.33;12.82;;;16.50;99.90;;;;;;7575628;19;20010;-73
2023/05/23 01:20:11;;;;;;;;;;;16.50;99.90;;;;;;7590902;19;20086;-73
2023/05/23 01:23:05;;;;;;;19.42;13.95;;;16.50;99.90;;;;;;7577489;19;21550;-73
2023/05/23 01:26:11;;;;;;;18.48;12.88;;;16.50;99.90;;;;;;7586003;19;20015;-73
2023/05/23 01:28:47;;;;;;;19.25;13.52;;;16.50;99.90;;;;;;7572243;19;20016;-73
2023/05/23 01:31:21;;;;;;;20.38;14.15;;;16.50;99.90;;;;;;7567024;19;20021;-72
2023/05/23 01:33:54;;;;;;;15.38;12.80;;;16.40;99.90;;;;;;7567595;19;20017;-72
2023/05/23 01:36:26;;;;;;;18.52;13.15;;;16.40;99.90;;;;;;7589445;19;20014;-72
2023/05/23 01:38:59;;;;;;;19.07;13.33;;;16.50;99.90;;;;;;7556507;19;20621;-72
2023/05/23 01:41:32;;;;;;;18.63;12.82;;;16.50;99.90;;;;;;7594987;19;20052;-72
2023/05/23 01:44:04;;;;;;;19.23;12.88;;;16.60;99.90;;;;;;7570985;19;20021;-73
2023/05/23 01:46:38;;;;;;;18.80;14.00;;;16.60;99.90;;;;;;7576344;19;20019;-73
2023/05/23 01:49:12;;;;;;;21.70;13.60;;;16.70;99.90;;;;;;7553228;19;20479;-73
2023/05/23 01:51:45;;;;;;;19.02;13.25;;;16.70;99.90;;;;;;7578023;19;20898;-71
2023/05/23 01:54:18;;;;;;;21.23;13.82;;;16.70;99.90;;;;;;7579142;19;20023;-72
2023/05/23 01:56:51;;;;;;;18.27;13.75;;;16.70;99.90;;;;;;7574086;19;20019;-72
2023/05/23 01:59:23;;;;;;;17.02;13.43;;;16.70;99.90;;;;;;7570147;19;20057;-73
2023/05/23 02:01:56;;;;;;;18.60;13.15;;;16.70;99.90;;;;;;7574657;19;20052;-72
2023/05/23 02:04:29;;;;;;;19.55;13.95;;;16.60;99.90;;;;;;7590562;19;20105;-74
2023/05/23 02:07:02;;;;;;;;;;;16.60;99.90;;;;;;7594957;19;20010;-72
2023/05/23 02:09:35;;;;;;;16.52;13.32;;;16.60;99.90;;;;;;7596373;19;20314;-74
2023/05/23 02:12:08;;;;;;;18.40;13.82;;;16.60;99.90;;;;;;7583276;19;20023;-71
2023/05/23 02:14:41;;;;;;;18.50;13.65;;;16.60;99.90;;;;;;7571908;19;20464;-72
2023/05/23 02:17:15;;;;;;;21.20;14.25;;;16.60;99.90;;;;;;7577029;19;20015;-72
2023/05/23 02:19:48;;;;;;;18.25;14.43;;;16.60;99.90;;;;;;7585248;19;20021;-72
2023/05/23 02:22:24;;;;;;;21.40;14.75;;;16.60;99.90;;;;;;7571195;19;21018;-73
2023/05/23 02:24:56;;;;;;;23.08;13.63;;;16.60;99.90;;;;;;7582648;19;22019;-72
2023/05/23 02:27:28;;;;;;;20.63;14.13;;;16.60;99.90;;;;;;7583093;19;20010;-72
2023/05/23 02:30:01;;;;;;;20.98;14.80;;;16.80;99.90;;;;;;7558274;19;22012;-72
2023/05/23 02:32:36;;;;;;;24.02;13.95;;;16.80;99.90;;;;;;7579084;19;20014;-73
2023/05/23 02:35:09;;;;;;;19.27;14.27;;;16.70;99.90;;;;;;7556622;19;20015;-72
2023/05/23 02:37:41;;;;;;;20.27;15.37;;;16.70;99.90;;;;;;7592166;19;20014;-73
2023/05/23 02:40:14;;;;;;;25.03;15.23;;;16.70;99.90;;;;;;7581046;19;20026;-73
2023/05/23 02:42:47;;;;;;;25.13;14.80;;;16.60;99.90;;;;;;7575301;19;20026;-73
2023/05/23 02:45:19;;;;;;;22.58;15.40;;;16.70;99.90;;;;;;7519309;19;20025;-72
2023/05/23 02:47:51;;;;;;;22.38;14.85;;;16.70;99.90;;;;;;7579707;19;20010;-72
2023/05/23 02:50:23;;;;;;;22.98;13.77;;;16.60;99.90;;;;;;7575175;19;20014;-73
2023/05/23 02:52:56;;;;;;;22.00;15.15;;;16.60;99.90;;;;;;7588709;19;20054;-73
2023/05/23 02:55:30;;;;;;;24.13;16.13;;;16.70;99.90;;;;;;7582303;19;20761;-73
2023/05/23 02:58:04;;;;;;;21.42;15.95;;;16.60;99.90;;;;;;7573705;19;20006;-73
2023/05/23 03:00:37;;;;;;;21.02;14.73;;;16.60;99.90;;;;;;7592709;19;20029;-74
2023/05/23 03:03:10;;;;;;;20.23;15.77;;;16.60;99.90;;;;;;7594692;19;20034;-72
2023/05/23 03:05:43;;;;;;;24.52;16.33;;;16.50;99.90;;;;;;7601163;19;20014;-74
2023/05/23 03:08:15;;;;;;;25.45;17.60;;;16.40;99.90;;;;;;7586429;19;20396;-72
2023/05/23 03:10:47;;;;;;;26.73;15.57;;;16.40;99.90;;;;;;7597624;19;20024;-72
2023/05/23 03:13:19;;;;;;;20.55;15.55;;;16.50;99.90;;;;;;7584072;19;20019;-74
2023/05/23 03:15:52;;;;;;;23.40;15.73;;;16.50;99.90;;;;;;7586451;19;20035;-75
2023/05/23 03:18:25;;;;;;;21.00;15.30;;;16.50;99.90;;;;;;7591672;19;20035;-73
2023/05/23 03:20:57;;;;;;;24.38;16.27;;;16.50;99.90;;;;;;7567009;19;20583;-73
2023/05/23 03:23:29;;;;;;;23.52;15.77;;;16.50;99.90;;;;;;7590386;19;20477;-75
2023/05/23 03:26:02;;;;;;;21.03;15.37;;;16.50;99.90;;;;;;7586006;19;20051;-74
2023/05/23 03:28:35;;;;;;;25.15;16.98;;;16.50;99.90;;;;;;7580508;19;20061;-73
2023/05/23 03:31:07;;;;;;;25.53;17.27;;;16.40;99.90;;;;;;7589677;19;20073;-74
2023/05/23 03:33:40;;;;;;;20.75;16.02;;;16.40;99.90;;;;;;7598795;19;20307;-73
2023/05/23 03:36:12;;;;;;;24.58;17.83;;;16.40;99.90;;;;;;7584543;19;20015;-74
2023/05/23 03:38:45;;;;;;;25.65;17.13;;;16.30;99.90;;;;;;7589149;19;20481;-74
2023/05/23 03:41:18;;;;;;;20.42;15.65;;;16.20;99.90;;;;;;7577959;19;20120;-73
2023/05/23 03:43:51;;;;;;;32.35;16.92;;;16.20;99.90;;;;;;7579603;19;20096;-74
2023/05/23 03:46:23;;;;;;;25.25;17.15;;;16.20;99.90;;;;;;7571082;19;20747;-74
2023/05/23 03:48:56;;;;;;;23.27;16.67;;;16.20;99.90;;;;;;7573384;19;20676;-74
2023/05/23 03:51:30;;;;;;;21.23;15.40;;;16.30;99.90;;;;;;7570236;19;20015;-73
2023/05/23 03:54:03;;;;;;;22.90;17.00;;;16.20;99.90;;;;;;7576812;19;20086;-72
2023/05/23 03:56:35;;;;;;;25.92;17.35;;;16.20;99.90;;;;;;7575585;19;20133;-73
2023/05/23 03:59:08;;;;;;;29.58;18.35;;;16.20;99.90;;;;;;7585745;19;20109;-74
2023/05/23 04:01:41;;;;;;;21.30;16.15;;;16.20;99.90;;;;;;7568064;19;20699;-74
2023/05/23 04:04:15;;;;;;;24.75;16.90;;;16.10;99.90;;;;;;7584382;19;20025;-74
2023/05/23 04:06:48;;;;;;;24.60;16.80;;;16.20;99.90;;;;;;7588289;19;20048;-73
2023/05/23 04:09:21;;;;;;;24.15;17.02;;;16.20;99.90;;;;;;7592210;19;20110;-73
2023/05/23 04:11:54;;;;;;;26.55;16.67;;;16.30;99.90;;;;;;7575968;19;20446;-73
2023/05/23 04:14:28;;;;;;;26.90;18.40;;;16.30;99.90;;;;;;7576249;19;20093;-74
2023/05/23 04:17:02;;;;;;;27.63;17.13;;;16.30;99.90;;;;;;7587968;19;20509;-73
2023/05/23 04:19:35;;;;;;;26.55;17.50;;;16.10;99.90;;;;;;7583130;19;20018;-73
2023/05/23 04:22:08;;;;;;;28.45;18.80;;;16.20;99.90;;;;;;7577059;19;20451;-74
2023/05/23 04:24:40;;;;;;;30.52;17.08;;;16.20;99.90;;;;;;7592983;19;20996;-72
2023/05/23 04:27:13;;;;;;;;;;;16.30;99.90;;;;;;7593529;19;20025;-74
2023/05/23 04:29:46;;;;;;;24.90;18.10;;;16.20;99.90;;;;;;7570753;19;19982;-73
2023/05/23 04:32:21;;;;;;;28.45;17.95;;;16.20;99.90;;;;;;7584105;19;20925;-74
2023/05/23 04:34:55;;;;;;;26.17;17.90;;;16.20;99.90;;;;;;7582128;19;20010;-75
2023/05/23 04:37:31;;;;;;;27.80;17.27;;;16.20;99.90;;;;;;7588253;19;20552;-73
2023/05/23 04:40:06;;;;;;;26.90;18.83;;;16.20;99.90;;;;;;7576548;19;20022;-74
2023/05/23 04:42:50;;;;;;;25.27;17.35;;;16.20;99.90;;;;;;7574760;19;20076;-74
2023/05/23 04:45:36;;;;;;;24.45;17.90;;;16.20;99.90;;;;;;7575300;19;20345;-76
2023/05/23 04:48:28;;;;;;;22.55;16.85;;;16.20;99.90;;;;;;7581495;19;20011;-73
2023/05/23 04:51:04;;;;;;;29.85;18.73;;;16.30;99.90;;;;;;7575132;19;20623;-73
2023/05/23 04:53:39;;;;;;;27.10;19.23;;;16.40;99.90;;;;;;7571922;19;20021;-74
2023/05/23 04:56:16;;;;;;;26.20;17.88;;;16.40;99.90;;;;;;7563113;19;20055;-73
2023/05/23 04:58:52;;;;;;;25.77;18.60;;;16.30;99.90;;;;;;7560150;19;20022;-73
2023/05/23 05:01:25;;;;;;;29.10;18.25;;;16.40;99.90;;;;;;7541516;19;20010;-74
2023/05/23 05:03:57;;;;;;;24.87;16.27;;;16.40;99.90;;;;;;7553923;19;20018;-75
2023/05/23 05:06:30;;;;;;;29.33;19.20;;;16.50;99.90;;;;;;7564141;19;20026;-74
2023/05/23 05:09:03;;;;;;;27.00;19.02;;;16.50;99.90;;;;;;7555938;19;20119;-74
2023/05/23 05:11:36;;;;;;;27.83;17.58;;;16.50;99.90;;;;;;7577291;19;20039;-74
2023/05/23 05:14:08;;;;;;;27.75;19.92;;;16.40;99.90;;;;;;7566564;19;20037;-74
2023/05/23 05:16:41;;;;;;;28.73;19.73;;;16.50;99.90;;;;;;7572847;19;20050;-75
2023/05/23 05:19:14;;;;;;;30.85;20.05;;;16.40;99.90;;;;;;7586071;19;20022;-75
2023/05/23 05:21:47;;;;;;;28.75;19.27;;;16.40;99.90;;;;;;7600413;19;20106;-74
2023/05/23 05:24:21;;;;;;;25.63;19.13;;;16.40;99.90;;;;;;7585278;19;20038;-75
2023/05/23 05:26:54;;;;;;;30.48;19.63;;;16.40;99.90;;;;;;7579850;19;20467;-75
2023/05/23 05:29:27;;;;;;;29.80;19.85;;;16.30;99.90;;;;;;7558681;19;20015;-76
2023/05/23 05:32:00;;;;;;;27.17;19.27;;;16.40;99.90;;;;;;7583672;19;20370;-75
2023/05/23 05:34:33;;;;;;;28.42;20.67;;;16.50;99.90;;;;;;7597152;19;20476;-75
2023/05/23 05:37:06;;;;;;;29.85;19.92;;;16.60;99.90;;;;;;7600596;19;20014;-75
2023/05/23 05:39:38;;;;;;;30.20;21.10;;;16.70;99.90;;;;;;7601985;19;20034;-75
2023/05/23 05:42:11;;;;;;;32.28;21.13;;;16.70;99.90;;;;;;7597506;19;20488;-75
2023/05/23 05:44:43;;;;;;;30.40;19.60;;;16.70;99.90;;;;;;7600227;19;20629;-75
2023/05/23 05:47:17;;;;;;;31.58;20.73;;;16.70;99.90;;;;;;7605059;19;20034;-76
2023/05/23 05:49:49;;;;;;;28.23;19.50;;;16.70;99.90;;;;;;7600690;19;20018;-76
2023/05/23 05:52:22;;;;;;;30.80;20.77;;;16.70;99.90;;;;;;7606981;19;20034;-76
2023/05/23 05:54:56;;;;;;;35.77;23.30;;;16.70;99.90;;;;;;7612813;19;20022;-77
2023/05/23 05:57:28;;;;;;;31.83;20.58;;;16.70;99.90;;;;;;7601960;19;20010;-74
2023/05/23 06:00:01;;;;;;;33.90;22.08;;;16.70;99.90;;;;;;7607483;19;20015;-76
2023/05/23 06:02:35;;;;;;;32.53;20.88;;;16.70;99.90;;;;;;7599153;19;20022;-77
2023/05/23 06:05:11;;;;;;;30.17;19.95;;;16.80;99.90;;;;;;7606493;19;20082;-76
2023/05/23 06:07:43;;;;;;;29.35;20.15;;;16.80;99.90;;;;;;7602871;19;20021;-76
2023/05/23 06:10:16;;;;;;;31.02;20.80;;;16.90;99.90;;;;;;7611488;19;20760;-77
2023/05/23 06:12:49;;;;;;;28.03;19.63;;;17.10;99.90;;;;;;7602227;19;20598;-77
2023/05/23 06:15:21;;;;;;;28.67;19.08;;;17.30;99.90;;;;;;7599119;19;20335;-77
2023/05/23 06:17:54;;;;;;;32.35;18.70;;;17.50;99.90;;;;;;7606614;19;20020;-76
2023/05/23 06:20:28;;;;;;;30.13;19.02;;;17.70;99.90;;;;;;7599207;19;20385;-76
2023/05/23 06:23:04;;;;;;;26.73;18.23;;;17.80;99.90;;;;;;7606968;19;20014;-76
2023/05/23 06:25:36;;;;;;;;;;;18.00;99.90;;;;;;7602140;19;20712;-77
2023/05/23 06:28:10;;;;;;;31.85;19.27;;;17.90;99.90;;;;;;7610880;19;19947;-76
2023/05/23 06:30:42;;;;;;;30.65;20.02;;;17.90;99.90;;;;;;7609737;19;20018;-76
2023/05/23 06:33:15;;;;;;;29.73;19.17;;;18.00;99.90;;;;;;7607813;19;20022;-74
2023/05/23 06:35:48;;;;;;;29.20;19.92;;;18.10;99.90;;;;;;7607495;19;20014;-75
2023/05/23 06:38:20;;;;;;;31.02;18.95;;;18.20;99.90;;;;;;7613849;19;20019;-77
2023/05/23 06:40:52;;;;;;;28.98;19.42;;;18.40;99.90;;;;;;7606240;19;20029;-76
2023/05/23 06:43:25;;;;;;;29.77;18.92;;;18.50;99.90;;;;;;7607026;19;20010;-77
2023/05/23 06:46:05;;;;;;;31.00;19.10;;;18.60;99.90;;;;;;7599492;19;20026;-76
2023/05/23 06:48:38;;;;;;;26.55;18.23;;;18.70;99.90;;;;;;7605020;19;20081;-76
2023/05/23 06:51:10;;;;;;;32.63;20.25;;;18.90;99.90;;;;;;7604774;19;20010;-74
2023/05/23 06:53:43;;;;;;;29.70;19.98;;;19.00;99.90;;;;;;7607430;19;20018;-75
2023/05/23 06:56:15;;;;;;;25.98;18.42;;;19.00;99.90;;;;;;7605912;19;20019;-74
2023/05/23 06:58:58;;;;;;;34.38;19.15;;;19.20;99.90;;;;;;7609985;19;20088;-75
2023/05/23 07:01:31;;;;;;;25.30;18.73;;;19.40;99.90;;;;;;7606942;19;21232;-76
2023/05/23 07:04:04;;;;;;;28.42;19.23;;;19.40;99.90;;;;;;7616688;19;20043;-76
2023/05/23 07:06:38;;;;;;;27.88;18.65;;;19.30;99.90;;;;;;7607714;19;20018;-75
2023/05/23 07:09:12;;;;;;;29.55;19.02;;;19.40;99.90;;;;;;7609263;19;20021;-76
2023/05/23 07:11:45;;;;;;;25.33;18.83;;;19.40;99.90;;;;;;7611434;19;20057;-75
2023/05/23 07:14:19;;;;;;;36.05;20.52;;;19.50;99.90;;;;;;7606896;19;20014;-76
2023/05/23 07:16:51;;;;;;;33.63;20.20;;;19.50;99.90;;;;;;7610166;19;20022;-75
2023/05/23 07:19:24;;;;;;;30.23;20.83;;;19.70;99.90;;;;;;7612860;19;20283;-75
2023/05/23 07:21:57;;;;;;;34.35;21.65;;;19.80;99.90;;;;;;7620236;19;20022;-75
2023/05/23 07:24:30;;;;;;;29.38;19.85;;;20.00;99.90;;;;;;7624591;19;20009;-74
2023/05/23 07:27:05;;;;;;;35.47;21.83;;;19.90;99.90;;;;;;7613674;19;20014;-75
2023/05/23 07:29:40;;;;;;;29.63;20.27;;;19.90;99.90;;;;;;7610215;19;20018;-75
2023/05/23 07:32:14;;;;;;;30.35;20.48;;;19.90;99.90;;;;;;7602865;19;20112;-76
2023/05/23 07:34:47;;;;;;;33.63;21.15;;;19.80;99.90;;;;;;7606611;19;20080;-74
2023/05/23 07:37:20;;;;;;;31.60;20.73;;;19.70;99.90;;;;;;7601802;19;20014;-76
2023/05/23 07:39:52;;;;;;;35.50;21.02;;;19.70;99.90;;;;;;7608219;19;20015;-75
2023/05/23 07:42:25;;;;;;;33.08;21.83;;;19.70;99.90;;;;;;7605833;19;20519;-76
2023/05/23 07:44:57;;;;;;;34.67;22.30;;;19.60;99.90;;;;;;7606545;19;20018;-75
2023/05/23 07:47:29;;;;;;;30.83;22.20;;;19.80;99.90;;;;;;7608672;19;21368;-76
2023/05/23 07:50:02;;;;;;;42.38;24.08;;;19.80;99.90;;;;;;7613646;19;20516;-75
2023/05/23 07:52:35;;;;;;;31.27;22.67;;;19.80;99.90;;;;;;7604643;19;20025;-74
2023/05/23 07:55:09;;;;;;;29.10;21.27;;;19.60;99.90;;;;;;7605805;19;20018;-74
2023/05/23 07:57:42;;;;;;;33.92;22.55;;;19.70;99.90;;;;;;7614910;19;20018;-76
2023/05/23 08:00:15;;;;;;;31.52;21.75;;;19.70;99.90;;;;;;7606548;19;20014;-74
2023/05/23 08:02:47;;;;;;;36.25;22.58;;;19.90;99.90;;;;;;7607751;19;20014;-74
2023/05/23 08:05:26;;;;;;;38.10;23.90;;;19.90;99.90;;;;;;7600075;19;20022;-74
2023/05/23 08:08:00;;;;;;;31.98;21.05;;;19.90;99.90;;;;;;7607714;19;20015;-75
2023/05/23 08:10:32;;;;;;;31.70;21.77;;;20.10;99.90;;;;;;7604647;19;20025;-75
2023/05/23 08:13:12;;;;;;;31.02;21.95;;;20.20;99.90;;;;;;7609688;19;20328;-74
2023/05/23 08:15:57;;;;;;;33.80;23.70;;;20.30;99.90;;;;;;7608242;19;20019;-76
2023/05/23 08:18:33;;;;;;;34.55;23.50;;;20.20;99.90;;;;;;7609247;19;20086;-74
2023/05/23 08:21:05;;;;;;;35.47;22.23;;;20.00;99.90;;;;;;7614913;19;20018;-73
2023/05/23 08:23:38;;;;;;;35.55;24.48;;;20.10;99.90;;;;;;7611175;19;20652;-77
2023/05/23 08:26:11;;;;;;;32.60;22.90;;;20.10;99.90;;;;;;7616355;19;20715;-77
2023/05/23 08:28:45;;;;;;;33.15;24.77;;;20.00;99.90;;;;;;7609175;19;20007;-76
2023/05/23 08:31:17;;;;;;;31.95;22.20;;;19.90;99.90;;;;;;7607428;19;20011;-74
2023/05/23 08:33:50;;;;;;;35.33;23.33;;;20.00;99.90;;;;;;7612421;19;20813;-75
2023/05/23 08:36:22;;;;;;;33.67;23.27;;;20.00;99.90;;;;;;7603205;19;20091;-74
2023/05/23 08:38:55;;;;;;;35.80;22.15;;;20.10;99.90;;;;;;7610900;19;20018;-76
2023/05/23 08:41:36;;;;;;;35.17;23.88;;;20.20;99.90;;;;;;7611758;19;20026;-75
2023/05/23 08:44:13;;;;;;;38.70;23.92;;;20.30;99.90;;;;;;7608860;19;20947;-74
2023/05/23 08:46:52;;;;;;;34.17;22.23;;;20.40;99.90;;;;;;7613284;19;20018;-76
2023/05/23 08:49:49;;;;;;;34.47;22.85;;;20.40;99.90;;;;;;7613653;19;20025;-75
2023/05/23 08:52:23;;;;;;;;;;;20.50;99.90;;;;;;7613584;19;20029;-75
2023/05/23 08:55:00;;;;;;;42.25;26.77;;;20.50;99.90;;;;;;7616821;19;19934;-75
2023/05/23 08:57:35;;;;;;;42.00;25.73;;;20.20;99.90;;;;;;7604245;19;20638;-74
2023/05/23 09:00:24;;;;;;;46.08;27.10;;;20.10;99.90;;;;;;7598961;19;20022;-74
2023/05/23 09:02:57;;;;;;;39.08;26.02;;;19.90;99.90;;;;;;7605928;19;20046;-75
2023/05/23 09:05:46;;;;;;;41.58;27.48;;;19.80;99.90;;;;;;7605176;19;20032;-76
2023/05/23 09:08:19;;;;;;;34.22;23.77;;;20.00;99.90;;;;;;7611070;19;20515;-75
2023/05/23 09:10:55;;;;;;;42.08;24.63;;;20.10;99.90;;;;;;7611683;19;20010;-75
2023/05/23 09:13:30;;;;;;;;;;;19.90;99.90;;;;;;7621976;19;20017;-80
2023/05/23 09:16:09;;;;;;;36.35;24.05;;;20.10;99.90;;;;;;7631357;19;19929;-80
2023/05/23 09:18:49;;;;;;;36.75;24.50;;;20.20;99.90;;;;;;7619280;19;20334;-79
2023/05/23 09:21:25;;;;;;;33.30;22.75;;;20.10;99.90;;;;;;7615948;19;20010;-79
2023/05/23 09:24:12;;;;;;;32.90;23.05;;;20.10;99.90;;;;;;7618350;19;20021;-80
2023/05/23 09:26:47;;;;;;;35.77;23.87;;;20.00;99.90;;;;;;7616295;19;20031;-80
2023/05/23 09:29:20;;;;;;;42.30;25.45;;;20.00;99.90;;;;;;7603869;19;20014;-82
2023/05/23 09:32:09;;;;;;;37.67;25.73;;;20.10;99.90;;;;;;7596177;19;20106;-79
2023/05/23 09:34:56;;;;;;;38.80;26.58;;;20.10;99.90;;;;;;7597723;19;20019;-82
2023/05/23 09:37:36;;;;;;;34.90;23.60;;;20.20;99.90;;;;;;7598331;19;20081;-80
2023/05/23 09:40:11;;;;;;;36.55;25.23;;;20.30;99.90;;;;;;7601729;19;20970;-79
2023/05/23 09:42:50;;;;;;;35.97;24.98;;;20.50;99.90;;;;;;7594488;19;20118;-78
2023/05/23 09:45:30;;;;;;;34.50;23.73;;;20.50;99.90;;;;;;7600902;19;20018;-79
2023/05/23 09:48:11;;;;;;;37.35;24.83;;;20.60;99.90;;;;;;7600000;19;20151;-79
2023/05/23 09:50:45;;;;;;;34.17;23.10;;;20.60;99.90;;;;;;7595508;19;20019;-80
2023/05/23 09:53:20;;;;;;;;;;;20.90;99.90;;;;;;7601971;19;20018;-78
2023/05/23 09:55:54;;;;;;;35.78;26.00;;;21.20;99.90;;;;;;7602641;19;19919;-80
2023/05/23 09:58:29;;;;;;;35.22;24.73;;;21.10;99.90;;;;;;7599806;19;20064;-79
2023/05/23 10:01:02;;;;;;;35.47;25.45;;;20.90;99.90;;;;;;7608172;19;20017;-79
2023/05/23 10:03:48;;;;;;;36.63;25.15;;;20.90;99.90;;;;;;7623789;19;20021;-80
2023/05/23 10:06:25;;;;;;;37.78;24.85;;;20.90;99.90;;;;;;7611600;19;20010;-78
2023/05/23 10:09:02;;;;;;;39.78;26.17;;;20.80;99.90;;;;;;7610975;19;20022;-79
2023/05/23 10:11:35;;;;;;;42.33;27.52;;;20.50;99.90;;;;;;7610192;19;20018;-80
2023/05/23 10:14:09;;;;;;;40.87;28.07;;;20.20;99.90;;;;;;7609353;19;20030;-79
2023/05/23 10:17:17;;;;;;;39.28;24.42;;;20.20;99.90;;;;;;7600484;19;20007;-80
2023/05/23 10:19:58;;;;;;;41.95;25.80;;;20.60;99.90;;;;;;7567104;19;20025;-80
2023/05/23 10:22:32;;;;;;;37.83;25.58;;;20.60;99.90;;;;;;7604339;19;20235;-78
2023/05/23 10:25:07;;;;;;;41.60;26.52;;;20.90;99.90;;;;;;7604545;19;20010;-78
2023/05/23 10:27:40;;;;;;;41.80;29.17;;;21.10;99.90;;;;;;7608119;19;20018;-80
2023/05/23 10:30:13;;;;;;;38.30;26.63;;;21.10;99.90;;;;;;7607140;19;20339;-79
2023/05/23 10:32:45;;;;;;;36.43;24.93;;;21.40;99.90;;;;;;7603663;19;20014;-79
2023/05/23 10:35:55;;;;;;;40.97;26.60;;;21.50;99.90;;;;;;7603684;19;20279;-81
2023/05/23 10:38:58;;;;;;;39.92;29.25;;;21.40;99.90;;;;;;7596791;19;20267;-81
2023/05/23 10:41:40;;;;;;;41.90;29.42;;;20.90;99.90;;;;;;7608635;19;20014;-81
2023/05/23 10:44:31;;;;;;;43.10;28.05;;;20.70;99.90;;;;;;7605717;19;20046;-80
2023/05/23 10:47:03;;;;;;;40.78;28.55;;;20.40;99.90;;;;;;7603864;19;20621;-81
2023/05/23 10:49:44;;;;;;;40.03;27.83;;;20.50;99.90;;;;;;7605823;19;20078;-81
2023/05/23 10:52:17;;;;;;;40.53;26.55;;;20.60;99.90;;;;;;7615139;19;20047;-81
2023/05/23 10:54:51;;;;;;;41.47;27.65;;;20.70;99.90;;;;;;7615072;19;20042;-81
2023/05/23 10:57:27;;;;;;;40.47;27.20;;;20.70;99.90;;;;;;7611032;19;20043;-79
2023/05/23 11:00:00;;;;;;;38.85;26.63;;;20.70;99.90;;;;;;7616402;19;20018;-79
2023/05/23 11:02:33;;;;;;;41.80;26.30;;;20.70;99.90;;;;;;7606035;19;20022;-83
2023/05/23 11:05:21;;;;;;;41.97;29.02;;;20.70;99.90;;;;;;7592723;19;20048;-81
2023/05/23 11:08:16;;;;;;;44.35;29.10;;;20.70;99.90;;;;;;7608152;19;20040;-77
2023/05/23 11:10:52;;;;;;;40.55;27.70;;;20.60;99.90;;;;;;7596527;19;20369;-80
2023/05/23 11:13:25;;;;;;;39.35;26.08;;;20.60;99.90;;;;;;7605586;19;20019;-79
2023/05/23 11:15:57;;;;;;;35.95;24.63;;;20.70;99.90;;;;;;7571392;19;20018;-79
2023/05/23 11:18:34;;;;;;;35.33;24.67;;;20.80;99.90;;;;;;7565777;19;21877;-77
2023/05/23 11:21:06;;;;;;;36.40;25.13;;;21.00;99.90;;;;;;7577867;19;20122;-79
2023/05/23 11:23:40;;;;;;;33.33;24.77;;;20.90;99.90;;;;;;7571264;19;20033;-80
2023/05/23 11:26:30;;;;;;;33.15;23.10;;;21.30;99.70;;;;;;7583673;19;20018;-79
2023/05/23 11:29:08;;;;;;;32.75;22.35;;;22.10;98.70;;;;;;7591450;19;20151;-80
2023/05/23 11:31:40;;;;;;;32.05;23.40;;;22.60;97.90;;;;;;7595477;19;20037;-79
2023/05/23 11:34:12;;;;;;;36.13;25.33;;;22.50;96.40;;;;;;7590435;19;20018;-81
2023/05/23 11:36:45;;;;;;;29.40;22.10;;;22.30;96.20;;;;;;7595392;19;20015;-80
2023/05/23 11:39:19;;;;;;;27.05;20.73;;;22.60;96.00;;;;;;7561408;19;20030;-84
2023/05/23 11:41:59;;;;;;;25.15;19.50;;;23.20;95.90;;;;;;7556891;19;20035;-82
2023/05/23 11:44:31;;;;;;;30.83;20.70;;;23.50;93.30;;;;;;7580298;19;20022;-74
2023/05/23 11:47:05;;;;;;;29.25;20.98;;;23.70;93.40;;;;;;7591391;19;20053;-75
2023/05/23 11:49:43;;;;;;;27.30;20.20;;;24.30;91.40;;;;;;7594024;19;20029;-74
2023/05/23 11:52:15;;;;;;;27.08;17.20;;;24.00;90.70;;;;;;7601348;19;20034;-75
2023/05/23 11:54:47;;;;;;;27.60;20.35;;;24.50;90.10;;;;;;7583211;19;20011;-74
2023/05/23 11:57:20;;;;;;;;;;;24.50;85.10;;;;;;7592853;19;20011;-73
2023/05/23 11:59:53;;;;;;;24.48;17.38;;;25.00;83.90;;;;;;7585327;19;19915;-75
2023/05/23 12:02:27;;;;;;;25.10;18.45;;;25.50;85.60;;;;;;7577310;19;20566;-76
2023/05/23 12:05:07;;;;;;;27.30;17.85;;;25.40;81.00;;;;;;7577826;19;20026;-81
2023/05/23 12:07:41;;;;;;;24.67;18.08;;;24.90;80.40;;;;;;7595417;19;20030;-75
2023/05/23 12:10:21;;;;;;;22.52;15.55;;;24.50;81.50;;;;;;7600880;19;20015;-76
2023/05/23 12:12:54;;;;;;;23.58;17.50;;;25.00;81.70;;;;;;7596944;19;20023;-75
2023/05/23 12:15:29;;;;;;;24.13;15.10;;;25.40;79.00;;;;;;7579662;19;21055;-74
2023/05/23 12:18:02;;;;;;;24.42;18.48;;;25.80;79.00;;;;;;7582224;19;20019;-75
2023/05/23 12:20:35;;;;;;;23.48;17.23;;;26.00;75.10;;;;;;7581800;19;20026;-74
2023/05/23 12:23:07;;;;;;;19.25;16.33;;;26.40;75.40;;;;;;7579120;19;21288;-75
2023/05/23 12:25:42;;;;;;;24.25;18.08;;;26.10;73.60;;;;;;7573168;19;20014;-77
2023/05/23 12:28:15;;;;;;;18.38;16.05;;;26.10;73.50;;;;;;7548853;19;20018;-75
2023/05/23 12:30:48;;;;;;;23.03;16.17;;;26.40;73.60;;;;;;7572203;19;20985;-74
2023/05/23 12:33:20;;;;;;;;;;;26.70;72.80;;;;;;7590807;19;20447;-74
2023/05/23 12:35:52;;;;;;;24.05;17.20;;;26.30;71.90;;;;;;7549786;19;19938;-75
2023/05/23 12:38:27;;;;;;;24.58;17.48;;;25.60;73.10;;;;;;7575658;19;20022;-76
2023/05/23 12:41:11;;;;;;;22.50;17.10;;;25.00;74.90;;;;;;7568930;19;20022;-74
2023/05/23 12:43:51;;;;;;;;;;;24.80;75.70;;;;;;7559296;19;20022;-72
2023/05/23 12:46:25;;;;;;;23.80;16.90;;;24.90;74.80;;;;;;7574727;19;19946;-74
2023/05/23 12:48:58;;;;;;;22.58;18.23;;;25.20;75.30;;;;;;7580977;19;20908;-73
2023/05/23 12:51:30;;;;;;;23.15;16.17;;;24.90;74.60;;;;;;7571550;19;20014;-73
2023/05/23 12:54:03;;;;;;;23.25;16.80;;;25.30;74.80;;;;;;7533119;19;20030;-76
2023/05/23 12:56:35;;;;;;;23.75;16.15;;;25.00;73.90;;;;;;7562826;19;20018;-76
2023/05/23 12:59:08;;;;;;;21.00;15.67;;;24.90;73.60;;;;;;7587000;19;20026;-75
2023/05/23 13:01:40;;;;;;;19.25;16.13;;;24.50;75.00;;;;;;7586769;19;20023;-76
2023/05/23 13:04:13;;;;;;;21.83;15.85;;;24.30;75.90;;;;;;7565592;19;20018;-77
2023/05/23 13:06:45;;;;;;;22.47;15.70;;;24.00;77.20;;;;;;7567026;19;20035;-76
2023/05/23 13:09:18;;;;;;;23.50;16.50;;;23.90;78.80;;;;;;7566489;19;20037;-75